Time;durP1;ratioP1;P1;durP2;ratioP2;P2;SDS_P1;SDS_P2;PMS_P1;PMS_P2;Temp;Humidity;BMP_temperature;BMP_pressure;BME280_temperature;BME280_humidity;BME280_pressure;Samples;Min_cycle;Max_cycle;Signal;HPM_P1;HPM_P2
2023/03/21 00:00:37;;;;;;;;;;;;;;;8.94;68.45;99383.78;5093521;28;19916;-74
2023/03/21 00:03:02;;;;;;;;;;;;;;;8.81;68.06;99371.63;5093427;28;20325;-74
2023/03/21 00:05:28;;;;;;;;;;;;;;;8.51;69.16;99375.00;5090279;28;19942;-74
2023/03/21 00:07:54;;;;;;;;;;;;;;;8.79;69.14;99366.34;5092833;28;19916;-74
2023/03/21 00:10:19;;;;;;;;;;;;;;;9.14;67.91;99368.38;5091426;28;19916;-74
2023/03/21 00:12:44;;;;;;;;;;;;;;;9.40;66.43;99365.53;5090083;28;19920;-74
2023/03/21 00:15:11;;;;;;;;;;;;;;;9.60;65.18;99368.81;5072960;28;19913;-74
2023/03/21 00:17:38;;;;;;;;;;;;;;;9.29;65.99;99352.28;5072931;28;19917;-74
2023/03/21 00:20:05;;;;;;;;;;;;;;;9.18;66.83;99346.22;5076515;28;19955;-73
2023/03/21 00:22:30;;;;;;;;;;;;;;;9.24;66.60;99342.94;5077497;28;20414;-74
2023/03/21 00:24:56;;;;;;;;;;;;;;;9.61;66.07;99348.13;5091396;28;20023;-74
2023/03/21 00:27:21;;;;;;;;;;;;;;;9.82;64.43;99350.22;5092386;28;19912;-74
2023/03/21 00:29:50;;;;;;;;;;;;;;;9.88;64.38;99348.88;5093105;28;20382;-74
2023/03/21 00:32:16;;;;;;;;;;;;;;;9.82;63.52;99341.84;5092749;28;20002;-74
2023/03/21 00:34:41;;;;;;;;;;;;;;;9.62;65.31;99344.16;5092746;28;19951;-74
2023/03/21 00:37:07;;;;;;;;;;;;;;;9.86;63.84;99342.00;5092832;28;20301;-74
2023/03/21 00:39:33;;;;;;;;;;;;;;;9.90;63.48;99342.97;5074457;28;19916;-74
2023/03/21 00:41:58;;;;;;;;;;;;;;;9.91;63.66;99339.00;5090355;28;20425;-74
2023/03/21 00:44:24;;;;;;;;;;;;;;;9.81;63.86;99341.00;5092586;28;20358;-74
2023/03/21 00:46:51;;;;;;;;;;;;;;;9.90;63.84;99329.81;5091646;28;21440;-73
2023/03/21 00:49:17;;;;;;;;;;;;;;;9.90;63.53;99324.22;5092602;28;19923;-74
2023/03/21 00:51:43;;;;;;;;;;;;;;;9.94;63.66;99328.00;5092721;28;19912;-74
2023/03/21 00:54:10;;;;;;;;;;;;;;;10.04;62.87;99318.41;5083267;28;20022;-74
2023/03/21 00:56:35;;;;;;;;;;;;;;;10.11;62.82;99315.09;5074682;28;19916;-74
2023/03/21 00:59:00;;;;;;;;;;;;;;;10.22;62.69;99315.56;5092353;28;20345;-74
2023/03/21 01:01:30;;;;;;;;;;;;;;;10.24;62.54;99319.63;5092547;28;19940;-74
2023/03/21 01:04:02;;;;;;;;;;;;;;;10.32;62.36;99314.34;5092561;28;19923;-72
2023/03/21 01:06:27;;;;;;;;;;;;;;;10.29;62.44;99309.44;5092424;28;19912;-74
2023/03/21 01:08:53;;;;;;;;;;;;;;;10.21;63.01;99308.31;5088684;28;20035;-73
2023/03/21 01:11:21;;;;;;;;;;;;;;;10.06;62.89;99299.31;5090834;28;20417;-74
2023/03/21 01:13:46;;;;;;;;;;;;;;;10.04;63.77;99300.84;5085432;28;19928;-74
2023/03/21 01:16:12;;;;;;;;;;;;;;;10.13;62.74;99304.38;5072229;28;19913;-74
2023/03/21 01:18:38;;;;;;;;;;;;;;;10.20;62.43;99301.91;5072373;28;19919;-74
2023/03/21 01:21:05;;;;;;;;;;;;;;;9.97;62.83;99290.19;5078250;28;19936;-74
2023/03/21 01:23:30;;;;;;;;;;;;;;;9.80;63.88;99277.09;5092278;28;19919;-74
2023/03/21 01:25:56;;;;;;;;;;;;;;;9.77;64.26;99278.59;5080493;28;19924;-74
2023/03/21 01:28:22;;;;;;;;;;;;;;;9.89;64.11;99275.06;5073519;28;19923;-74
2023/03/21 01:30:48;;;;;;;;;;;;;;;9.92;63.68;99277.22;5075977;28;19913;-74
2023/03/21 01:33:15;;;;;;;;;;;;;;;9.87;63.82;99271.81;5076303;28;19919;-74
2023/03/21 01:35:40;;;;;;;;;;;;;;;9.81;64.20;99267.56;5090226;28;20002;-74
2023/03/21 01:38:06;;;;;;;;;;;;;;;9.67;65.17;99267.78;5096401;28;20371;-74
2023/03/21 01:40:31;;;;;;;;;;;;;;;9.58;64.89;99267.81;5091621;28;20407;-74
2023/03/21 01:42:56;;;;;;;;;;;;;;;9.56;65.33;99261.75;5074228;28;19924;-74
2023/03/21 01:45:40;;;;;;;;;;;;;;;9.44;66.26;99264.41;5075766;28;19927;-74
2023/03/21 01:48:06;;;;;;;;;;;;;;;9.54;65.13;99255.69;5078547;28;19920;-73
2023/03/21 01:50:31;;;;;;;;;;;;;;;9.64;65.06;99246.91;5095551;28;19939;-74
2023/03/21 01:52:57;;;;;;;;;;;;;;;9.55;65.03;99255.31;5094382;28;20758;-74
2023/03/21 01:55:22;;;;;;;;;;;;;;;9.09;66.74;99246.59;5077271;28;19924;-74
2023/03/21 01:57:51;;;;;;;;;;;;;;;9.15;66.83;99243.59;5075131;28;20069;-73
2023/03/21 02:00:19;;;;;;;;;;;;;;;8.95;67.64;99237.56;5075440;28;20375;-74
2023/03/21 02:02:54;;;;;;;;;;;;;;;8.85;68.23;99245.13;5083917;28;19912;-74
2023/03/21 02:05:31;;;;;;;;;;;;;;;8.97;67.76;99252.00;5095501;28;20062;-73
2023/03/21 02:07:56;;;;;;;;;;;;;;;9.17;66.26;99253.28;5095942;28;20271;-73
2023/03/21 02:10:22;;;;;;;;;;;;;;;9.28;66.32;99250.97;5095184;28;19923;-74
2023/03/21 02:12:47;;;;;;;;;;;;;;;9.29;66.48;99247.03;5094426;28;19919;-74
2023/03/21 02:15:13;;;;;;;;;;;;;;;9.37;66.01;99256.53;5090021;28;20003;-74
2023/03/21 02:17:53;;;;;;;;;;;;;;;9.07;66.52;99251.69;5090681;28;19916;-74
2023/03/21 02:20:41;;;;;;;;;;;;;;;9.20;66.34;99249.03;5095432;28;20370;-74
2023/03/21 02:23:25;;;;;;;;;;;;;;;9.24;66.69;99252.78;5083283;28;20369;-74
2023/03/21 02:26:06;;;;;;;;;;;;;;;9.39;65.98;99259.81;5074906;28;19921;-74
2023/03/21 02:28:38;;;;;;;;;;;;;;;9.38;66.04;99260.97;5075285;28;20436;-74
2023/03/21 02:31:12;;;;;;;;;;;;;;;9.29;66.29;99263.78;5085306;28;20286;-74
2023/03/21 02:33:52;;;;;;;;;;;;;;;8.90;67.45;99269.25;5084516;28;19978;-73
2023/03/21 02:36:36;;;;;;;;;;;;;;;8.71;68.75;99266.78;5074720;28;20003;-74
2023/03/21 02:39:22;;;;;;;;;;;;;;;8.48;69.41;99271.63;5074494;28;19993;-73
2023/03/21 02:41:53;;;;;;;;;;;;;;;8.31;70.56;99275.22;5074152;28;19920;-74
2023/03/21 02:44:19;;;;;;;;;;;;;;;8.21;71.01;99277.19;5078536;28;19927;-74
2023/03/21 02:46:50;;;;;;;;;;;;;;;8.31;71.23;99276.03;5094780;28;19912;-74
2023/03/21 02:49:25;;;;;;;;;;;;;;;8.61;70.08;99281.03;5095125;28;20022;-74
2023/03/21 02:51:50;;;;;;;;;;;;;;;8.85;69.04;99274.97;5083166;28;19932;-74
2023/03/21 02:54:18;;;;;;;;;;;;;;;9.08;67.40;99286.78;5074792;28;20162;-74
2023/03/21 02:56:45;;;;;;;;;;;;;;;9.05;67.60;99281.88;5073342;28;19934;-74
2023/03/21 02:59:11;;;;;;;;;;;;;;;8.90;67.63;99285.16;5088071;28;19916;-73
2023/03/21 03:01:37;;;;;;;;;;;;;;;8.51;69.11;99287.75;5093109;28;19927;-73
2023/03/21 03:04:03;;;;;;;;;;;;;;;8.64;68.59;99283.16;5094770;28;19916;-73
2023/03/21 03:06:48;;;;;;;;;;;;;;;8.86;68.09;99284.97;5093773;28;20382;-72
2023/03/21 03:09:28;;;;;;;;;;;;;;;9.02;67.75;99293.69;5089232;28;19920;-74
2023/03/21 03:12:01;;;;;;;;;;;;;;;8.99;67.12;99292.38;5077051;28;19924;-74
2023/03/21 03:14:41;;;;;;;;;;;;;;;9.10;66.93;99295.66;5094483;28;19919;-74
2023/03/21 03:17:19;;;;;;;;;;;;;;;8.99;67.73;99286.81;5094418;28;19916;-74
2023/03/21 03:20:05;;;;;;;;;;;;;;;9.15;67.44;99297.47;5094288;28;19912;-74
2023/03/21 03:22:45;;;;;;;;;;;;;;;9.23;66.40;99296.63;5091715;28;19922;-74
2023/03/21 03:25:13;;;;;;;;;;;;;;;8.95;67.59;99293.38;5073929;28;19986;-74
2023/03/21 03:27:41;;;;;;;;;;;;;;;9.03;68.41;99292.53;5090099;28;19919;-74
2023/03/21 03:30:08;;;;;;;;;;;;;;;8.87;68.45;99283.03;5094102;28;19920;-73
2023/03/21 03:33:01;;;;;;;;;;;;;;;8.60;68.84;99287.78;5092865;28;20382;-74
2023/03/21 03:35:26;;;;;;;;;;;;;;;8.68;69.47;99289.72;5091293;28;19916;-73
2023/03/21 03:37:56;;;;;;;;;;;;;;;8.87;68.97;99281.06;5080242;28;19922;-74
2023/03/21 03:40:27;;;;;;;;;;;;;;;8.71;69.34;99281.53;5080287;28;19923;-73
2023/03/21 03:42:55;;;;;;;;;;;;;;;8.90;68.37;99271.19;5093900;28;19955;-74
2023/03/21 03:45:25;;;;;;;;;;;;;;;9.02;68.13;99274.16;5093911;28;19916;-74
2023/03/21 03:48:00;;;;;;;;;;;;;;;8.48;69.94;99266.91;5093771;28;19912;-74
2023/03/21 03:50:25;;;;;;;;;;;;;;;8.25;71.85;99258.66;5090718;28;19916;-74
2023/03/21 03:53:10;;;;;;;;;;;;;;;8.50;70.51;99259.06;5085349;28;19923;-74
2023/03/21 03:55:36;;;;;;;;;;;;;;;8.81;69.10;99268.41;5066001;28;19916;-74
2023/03/21 03:58:01;;;;;;;;;;;;;;;8.91;68.74;99261.69;5072789;28;20431;-74
2023/03/21 04:00:30;;;;;;;;;;;;;;;8.74;68.55;99266.13;5073470;28;20298;-74
2023/03/21 04:02:58;;;;;;;;;;;;;;;8.55;69.51;99267.25;5073353;28;20381;-74
2023/03/21 04:05:23;;;;;;;;;;;;;;;8.48;70.19;99272.47;5073091;28;19920;-74
2023/03/21 04:07:49;;;;;;;;;;;;;;;8.53;70.20;99266.75;5076059;28;19960;-75
2023/03/21 04:10:15;;;;;;;;;;;;;;;8.61;70.37;99256.75;5086909;28;20000;-74
2023/03/21 04:12:40;;;;;;;;;;;;;;;8.72;69.51;99262.84;5093240;28;19999;-74
2023/03/21 04:15:06;;;;;;;;;;;;;;;8.86;69.14;99268.25;5091163;28;20392;-75
2023/03/21 04:17:32;;;;;;;;;;;;;;;8.93;68.55;99264.97;5089584;28;19913;-74
2023/03/21 04:19:57;;;;;;;;;;;;;;;8.87;68.96;99263.50;5074603;28;20497;-74
2023/03/21 04:22:23;;;;;;;;;;;;;;;8.94;67.63;99264.63;5091886;28;20344;-75
2023/03/21 04:24:48;;;;;;;;;;;;;;;8.96;67.26;99262.34;5092808;28;19920;-74
2023/03/21 04:27:14;;;;;;;;;;;;;;;8.96;67.26;99270.69;5092867;28;19923;-74
2023/03/21 04:29:39;;;;;;;;;;;;;;;8.94;66.60;99272.22;5093134;28;19912;-74
2023/03/21 04:32:18;;;;;;;;;;;;;;;8.98;67.00;99273.19;5089789;28;19958;-74
2023/03/21 04:34:48;;;;;;;;;;;;;;;8.82;67.58;99268.09;5072853;28;19913;-74
2023/03/21 04:37:15;;;;;;;;;;;;;;;8.76;67.31;99271.38;5072862;28;19920;-74
2023/03/21 04:39:40;;;;;;;;;;;;;;;8.75;67.88;99278.91;5072590;28;19913;-74
2023/03/21 04:42:05;;;;;;;;;;;;;;;8.74;67.55;99274.50;5072414;28;19927;-74
2023/03/21 04:44:30;;;;;;;;;;;;;;;8.51;68.31;99276.63;5072529;28;20391;-75
2023/03/21 04:46:56;;;;;;;;;;;;;;;8.18;69.48;99277.00;5083214;28;19924;-73
2023/03/21 04:49:21;;;;;;;;;;;;;;;8.09;70.16;99282.56;5071954;28;20011;-74
2023/03/21 04:51:47;;;;;;;;;;;;;;;8.07;70.92;99287.59;5072517;28;19916;-74
2023/03/21 04:54:12;;;;;;;;;;;;;;;8.27;70.86;99278.66;5080093;28;19923;-74
2023/03/21 04:56:37;;;;;;;;;;;;;;;8.46;70.33;99293.44;5092815;28;19927;-74
2023/03/21 04:59:07;;;;;;;;;;;;;;;8.60;69.89;99288.56;5092582;28;20453;-74
2023/03/21 05:01:32;;;;;;;;;;;;;;;8.54;70.31;99289.91;5089582;28;19916;-74
2023/03/21 05:03:59;;;;;;;;;;;;;;;8.72;69.73;99293.53;5073126;28;19923;-74
2023/03/21 05:06:25;;;;;;;;;;;;;;;8.90;68.72;99297.13;5071817;28;19924;-74
2023/03/21 05:08:50;;;;;;;;;;;;;;;9.01;68.94;99291.22;5071926;28;20367;-72
2023/03/21 05:11:16;;;;;;;;;;;;;;;9.05;68.98;99295.00;5072784;28;20158;-74
2023/03/21 05:13:41;;;;;;;;;;;;;;;9.15;69.16;99291.03;5076207;28;19916;-74
2023/03/21 05:16:07;;;;;;;;;;;;;;;9.36;68.88;99283.63;5084765;28;19920;-74
2023/03/21 05:18:33;;;;;;;;;;;;;;;9.47;68.33;99280.50;5078421;28;20018;-74
2023/03/21 05:20:59;;;;;;;;;;;;;;;9.49;68.50;99276.22;5071553;28;19917;-74
2023/03/21 05:23:24;;;;;;;;;;;;;;;9.49;68.64;99272.59;5086978;28;20409;-74
2023/03/21 05:25:50;;;;;;;;;;;;;;;9.61;69.05;99272.72;5085691;28;19927;-75
2023/03/21 05:28:18;;;;;;;;;;;;;;;9.64;68.65;99274.03;5082386;28;19916;-75
2023/03/21 05:30:44;;;;;;;;;;;;;;;9.69;68.42;99277.47;5082423;28;19924;-74
2023/03/21 05:33:10;;;;;;;;;;;;;;;9.64;68.42;99274.84;5077802;28;19920;-74
2023/03/21 05:35:35;;;;;;;;;;;;;;;9.59;68.83;99269.44;5075798;28;20370;-74
2023/03/21 05:38:01;;;;;;;;;;;;;;;9.67;68.95;99274.19;5083475;28;19966;-74
2023/03/21 05:40:26;;;;;;;;;;;;;;;9.74;68.73;99278.44;5091631;28;19952;-75
2023/03/21 05:42:51;;;;;;;;;;;;;;;9.77;68.31;99284.16;5083573;28;20405;-75
2023/03/21 05:45:16;;;;;;;;;;;;;;;9.73;69.71;99276.78;5104745;28;20417;-76
2023/03/21 05:47:42;;;;;;;;;;;;;;;9.88;68.56;99270.66;5090168;28;19916;-74
2023/03/21 05:50:08;;;;;;;;;;;;;;;9.78;69.38;99279.41;5091490;28;20279;-72
2023/03/21 05:52:33;;;;;;;;;;;;;;;9.64;70.94;99286.00;5091871;28;19916;-75
2023/03/21 05:54:58;;;;;;;;;;;;;;;9.47;72.14;99294.44;5091244;28;19975;-75
2023/03/21 05:57:26;;;;;;;;;;;;;;;9.61;70.70;99292.28;5089106;28;19916;-76
2023/03/21 05:59:52;;;;;;;;;;;;;;;9.58;72.00;99295.72;5085951;28;19956;-77
2023/03/21 06:02:17;;;;;;;;;;;;;;;9.31;73.20;99294.97;5070766;28;19955;-74
2023/03/21 06:04:43;;;;;;;;;;;;;;;9.36;74.59;99294.78;5085170;28;20434;-75
2023/03/21 06:07:08;;;;;;;;;;;;;;;9.32;73.53;99290.19;5088859;28;20429;-74
2023/03/21 06:09:33;;;;;;;;;;;;;;;9.43;73.28;99299.88;5078877;28;19916;-74
2023/03/21 06:11:59;;;;;;;;;;;;;;;9.36;72.91;99286.41;5086509;28;19928;-73
2023/03/21 06:14:24;;;;;;;;;;;;;;;9.38;73.17;99284.09;5085375;28;19924;-74
2023/03/21 06:16:51;;;;;;;;;;;;;;;9.30;72.78;99289.72;5089374;28;19931;-74
2023/03/21 06:19:16;;;;;;;;;;;;;;;9.37;73.12;99290.84;5086569;28;19916;-73
2023/03/21 06:21:42;;;;;;;;;;;;;;;9.56;72.93;99292.47;5112293;27;19968;-75
2023/03/21 06:24:07;;;;;;;;;;;;;;;9.65;72.42;99298.00;5104654;28;19993;-74
2023/03/21 06:26:32;;;;;;;;;;;;;;;9.77;70.59;99295.34;5076233;28;19917;-75
2023/03/21 06:28:58;;;;;;;;;;;;;;;9.62;71.04;99299.50;5086882;28;20045;-74
2023/03/21 06:31:25;;;;;;;;;;;;;;;9.77;70.35;99308.47;5089382;28;20015;-75
2023/03/21 06:33:50;;;;;;;;;;;;;;;9.77;69.79;99305.69;5088720;28;20015;-75
2023/03/21 06:36:16;;;;;;;;;;;;;;;9.79;69.69;99309.00;5081310;28;20036;-73
2023/03/21 06:38:41;;;;;;;;;;;;;;;9.95;68.76;99307.28;5085136;28;19916;-74
2023/03/21 06:41:07;;;;;;;;;;;;;;;9.98;70.06;99311.38;5085317;28;19985;-72
2023/03/21 06:43:32;;;;;;;;;;;;;;;10.07;69.22;99311.34;5089427;28;20420;-69
2023/03/21 06:45:59;;;;;;;;;;;;;;;10.31;67.76;99321.09;5088987;28;19980;-73
2023/03/21 06:48:25;;;;;;;;;;;;;;;10.52;67.77;99309.97;5085758;28;19916;-72
2023/03/21 06:50:51;;;;;;;;;;;;;;;10.50;67.86;99303.91;5086940;28;19915;-76
2023/03/21 06:53:17;;;;;;;;;;;;;;;10.52;67.78;99309.97;5090964;28;19962;-74
2023/03/21 06:55:42;;;;;;;;;;;;;;;10.78;66.40;99304.22;5091646;28;20294;-72
2023/03/21 06:58:07;;;;;;;;;;;;;;;10.99;65.45;99308.16;5090785;28;19916;-73
2023/03/21 07:00:33;;;;;;;;;;;;;;;11.07;65.30;99305.28;5086217;28;20457;-72
2023/03/21 07:02:58;;;;;;;;;;;;;;;11.19;65.16;99315.72;5083342;28;20409;-72
2023/03/21 07:05:24;;;;;;;;;;;;;;;11.32;64.36;99308.19;5071431;28;20432;-72
2023/03/21 07:07:49;;;;;;;;;;;;;;;11.40;64.56;99311.25;5076580;28;19920;-72
2023/03/21 07:10:15;;;;;;;;;;;;;;;11.36;64.80;99311.97;5080351;28;19916;-75
2023/03/21 07:12:40;;;;;;;;;;;;;;;11.23;65.09;99307.47;5090566;28;19920;-73
2023/03/21 07:15:06;;;;;;;;;;;;;;;11.17;65.41;99306.88;5093809;28;19927;-73
2023/03/21 07:17:31;;;;;;;;;;;;;;;11.40;64.38;99314.06;5084543;28;19923;-76
2023/03/21 07:19:58;;;;;;;;;;;;;;;11.62;64.04;99321.25;5083514;28;19944;-75
2023/03/21 07:22:23;;;;;;;;;;;;;;;11.71;63.64;99321.97;5078718;28;19966;-74
2023/03/21 07:24:48;;;;;;;;;;;;;;;11.72;63.88;99314.41;5072345;28;19925;-72
2023/03/21 07:27:14;;;;;;;;;;;;;;;11.66;63.89;99309.00;5087429;28;20469;-73
2023/03/21 07:29:40;;;;;;;;;;;;;;;11.80;64.07;99307.84;5085736;28;19916;-74
2023/03/21 07:32:05;;;;;;;;;;;;;;;11.93;63.58;99306.72;5077810;28;20371;-74
2023/03/21 07:34:32;;;;;;;;;;;;;;;11.96;64.25;99304.41;5073697;28;19920;-74
2023/03/21 07:36:58;;;;;;;;;;;;;;;11.99;64.17;99298.91;5107630;27;19924;-76
2023/03/21 07:39:24;;;;;;;;;;;;;;;12.19;63.67;99300.00;5068999;28;20730;-75
2023/03/21 07:41:50;;;;;;;;;;;;;;;12.36;62.54;99295.31;5079983;28;19924;-76
2023/03/21 07:44:15;;;;;;;;;;;;;;;12.45;63.40;99293.22;5077644;28;19928;-72
2023/03/21 07:46:41;;;;;;;;;;;;;;;12.49;62.29;99276.50;5078861;28;20345;-74
2023/03/21 07:49:07;;;;;;;;;;;;;;;12.41;62.57;99272.63;5125773;27;19927;-71
2023/03/21 07:51:34;;;;;;;;;;;;;;;12.53;63.18;99273.78;5092930;28;19938;-73
2023/03/21 07:54:00;;;;;;;;;;;;;;;12.39;63.40;99277.78;5085921;28;19919;-71
2023/03/21 07:56:25;;;;;;;;;;;;;;;12.42;63.84;99279.06;5076634;28;19974;-71
2023/03/21 07:58:50;;;;;;;;;;;;;;;12.46;64.15;99271.59;5080101;28;19920;-70
2023/03/21 08:01:16;;;;;;;;;;;;;;;12.58;63.04;99282.78;5089681;28;19920;-73
2023/03/21 08:03:42;;;;;;;;;;;;;;;12.54;62.67;99283.84;5084682;28;20654;-74
2023/03/21 08:06:07;;;;;;;;;;;;;;;12.46;63.21;99288.41;5087669;28;19924;-76
2023/03/21 08:08:33;;;;;;;;;;;;;;;12.54;62.86;99287.47;5090845;27;20240;-75
2023/03/21 08:10:58;;;;;;;;;;;;;;;12.36;63.90;99289.72;5091351;28;20367;-74
2023/03/21 08:13:24;;;;;;;;;;;;;;;12.39;63.27;99289.00;5077753;28;19939;-74
2023/03/21 08:15:50;;;;;;;;;;;;;;;12.61;63.14;99289.69;5113187;28;19912;-73
2023/03/21 08:18:15;;;;;;;;;;;;;;;12.50;63.62;99292.97;5112507;28;19919;-72
2023/03/21 08:20:41;;;;;;;;;;;;;;;12.42;63.72;99291.09;5094145;28;19916;-74
2023/03/21 08:23:06;;;;;;;;;;;;;;;12.62;63.29;99283.72;5080058;28;19923;-73
2023/03/21 08:25:32;;;;;;;;;;;;;;;12.88;62.36;99276.88;5080641;28;19927;-74
2023/03/21 08:27:57;;;;;;;;;;;;;;;13.06;61.98;99277.41;5081230;28;19920;-72
2023/03/21 08:30:24;;;;;;;;;;;;;;;12.77;63.09;99282.16;5072295;28;20382;-76
2023/03/21 08:32:50;;;;;;;;;;;;;;;12.97;62.14;99279.53;5073147;28;19916;-73
2023/03/21 08:35:17;;;;;;;;;;;;;;;13.01;61.79;99263.59;5095613;28;20296;-73
2023/03/21 08:37:43;;;;;;;;;;;;;;;13.17;61.22;99282.53;5083863;28;19966;-74
2023/03/21 08:40:12;;;;;;;;;;;;;;;13.31;61.28;99271.69;5102281;28;19951;-72
2023/03/21 08:42:38;;;;;;;;;;;;;;;12.90;63.57;99263.31;5126718;27;19932;-70
2023/03/21 08:45:03;;;;;;;;;;;;;;;12.88;63.93;99279.69;5088741;28;20422;-74
2023/03/21 08:47:29;;;;;;;;;;;;;;;12.83;64.01;99279.91;5085275;28;20014;-73
2023/03/21 08:49:54;;;;;;;;;;;;;;;12.88;63.93;99279.69;5072544;28;19916;-71
2023/03/21 08:52:20;;;;;;;;;;;;;;;12.80;64.24;99263.00;5071436;28;19997;-71
2023/03/21 08:54:45;;;;;;;;;;;;;;;12.80;65.19;99272.22;5078268;28;19981;-70
2023/03/21 08:57:10;;;;;;;;;;;;;;;13.17;64.07;99280.50;5088827;28;20511;-70
2023/03/21 08:59:36;;;;;;;;;;;;;;;13.53;64.84;99288.34;5090436;28;20010;-69
2023/03/21 09:02:02;;;;;;;;;;;;;;;13.84;68.06;99276.31;5091846;28;19912;-69
2023/03/21 09:04:29;;;;;;;;;;;;;;;14.04;64.86;99273.59;5091732;28;20321;-71
2023/03/21 09:06:55;;;;;;;;;;;;;;;14.13;64.32;99276.22;5075149;28;19920;-70
2023/03/21 09:09:20;;;;;;;;;;;;;;;14.37;67.74;99272.41;5071817;28;20338;-71
2023/03/21 09:11:45;;;;;;;;;;;;;;;14.32;63.11;99270.69;5085004;28;19965;-72
2023/03/21 09:14:11;;;;;;;;;;;;;;;14.52;64.48;99261.47;5080931;28;19962;-72
2023/03/21 09:16:36;;;;;;;;;;;;;;;14.91;60.79;99253.09;5079746;28;19926;-74
2023/03/21 09:19:03;;;;;;;;;;;;;;;14.87;59.06;99263.47;5106806;28;19931;-73
2023/03/21 09:21:29;;;;;;;;;;;;;;;15.11;61.42;99259.53;5076623;28;19924;-73
2023/03/21 09:23:57;;;;;;;;;;;;;;;15.01;59.03;99255.31;5074487;28;19959;-72
2023/03/21 09:26:23;;;;;;;;;;;;;;;15.36;61.21;99247.16;5091716;28;20328;-73
2023/03/21 09:28:49;;;;;;;;;;;;;;;15.46;62.35;99246.56;5077699;28;19920;-74
2023/03/21 09:31:20;;;;;;;;;;;;;;;15.68;63.14;99247.75;5077170;28;19985;-73
2023/03/21 09:33:46;;;;;;;;;;;;;;;15.86;58.34;99247.22;5081211;28;19924;-71
2023/03/21 09:36:13;;;;;;;;;;;;;;;16.08;54.91;99256.09;5089832;28;20408;-73
2023/03/21 09:38:44;;;;;;;;;;;;;;;16.09;52.73;99247.25;5090856;28;19964;-74
2023/03/21 09:41:24;;;;;;;;;;;;;;;15.72;51.78;99245.78;5089789;28;19949;-74
2023/03/21 09:44:08;;;;;;;;;;;;;;;15.76;52.87;99239.44;5090274;28;19961;-74
2023/03/21 09:46:52;;;;;;;;;;;;;;;15.82;54.59;99227.47;5088017;28;19928;-73
2023/03/21 09:49:24;;;;;;;;;;;;;;;15.77;54.39;99226.97;5083773;28;19928;-73
2023/03/21 09:51:51;;;;;;;;;;;;;;;15.76;54.20;99245.88;5088512;28;19927;-71
2023/03/21 09:54:23;;;;;;;;;;;;;;;15.78;54.27;99237.84;5085521;28;19916;-74
2023/03/21 09:56:51;;;;;;;;;;;;;;;15.53;54.77;99228.94;5078508;28;19916;-73
2023/03/21 09:59:43;;;;;;;;;;;;;;;15.68;55.95;99224.38;5078688;28;19927;-73
2023/03/21 10:02:15;;;;;;;;;;;;;;;15.61;54.16;99218.63;5075050;28;19920;-73
2023/03/21 10:04:42;;;;;;;;;;;;;;;15.26;54.68;99221.22;5087254;28;20415;-73
2023/03/21 10:07:14;;;;;;;;;;;;;;;15.48;56.01;99221.63;5085820;28;20410;-73
2023/03/21 10:09:40;;;;;;;;;;;;;;;15.54;54.99;99222.13;5074523;28;20003;-73
2023/03/21 10:12:11;;;;;;;;;;;;;;;15.39;56.08;99216.22;5078046;28;20018;-73
2023/03/21 10:14:38;;;;;;;;;;;;;;;15.37;56.50;99212.94;5083177;28;19916;-75
2023/03/21 10:17:12;;;;;;;;;;;;;;;15.39;55.12;99206.94;5079180;28;20394;-73
2023/03/21 10:19:38;;;;;;;;;;;;;;;15.60;55.56;99200.88;5082429;28;19946;-73
2023/03/21 10:22:03;;;;;;;;;;;;;;;15.68;55.70;99194.19;5085394;28;19916;-73
2023/03/21 10:24:30;;;;;;;;;;;;;;;15.82;55.19;99202.06;5080538;28;19991;-70
2023/03/21 10:26:55;;;;;;;;;;;;;;;16.14;53.50;99196.16;5078486;28;19970;-71
2023/03/21 10:29:23;;;;;;;;;;;;;;;16.42;53.21;99192.13;5083333;28;20398;-79
2023/03/21 10:31:50;;;;;;;;;;;;;;;16.19;53.64;99192.19;5073959;28;19981;-76
2023/03/21 10:34:21;;;;;;;;;;;;;;;16.11;53.76;99188.44;5089781;28;19923;-73
2023/03/21 10:36:46;;;;;;;;;;;;;;;16.18;53.92;99184.13;5086361;28;20383;-72
2023/03/21 10:39:23;;;;;;;;;;;;;;;15.77;54.64;99188.28;5108404;27;19923;-73
2023/03/21 10:41:49;;;;;;;;;;;;;;;15.91;55.09;99178.44;5091509;28;19926;-74
2023/03/21 10:44:18;;;;;;;;;;;;;;;15.72;55.74;99183.78;5079391;28;19924;-73
2023/03/21 10:46:53;;;;;;;;;;;;;;;15.91;54.56;99175.63;5091941;28;19923;-73
2023/03/21 10:49:20;;;;;;;;;;;;;;;16.28;54.48;99169.34;5085036;28;19975;-72
2023/03/21 10:51:48;;;;;;;;;;;;;;;16.45;53.01;99169.97;5079399;28;19917;-72
2023/03/21 10:54:16;;;;;;;;;;;;;;;16.33;53.13;99157.72;5077778;28;19923;-72
2023/03/21 10:56:55;;;;;;;;;;;;;;;16.25;53.18;99144.72;5077464;28;19924;-73
2023/03/21 10:59:22;;;;;;;;;;;;;;;16.37;53.42;99127.53;5083380;28;19917;-73
2023/03/21 11:01:49;;;;;;;;;;;;;;;16.58;52.17;99142.31;5081439;28;20007;-72
2023/03/21 11:04:19;;;;;;;;;;;;;;;16.71;50.35;99143.69;5091336;28;20030;-72
2023/03/21 11:06:50;;;;;;;;;;;;;;;16.73;49.58;99149.78;5106748;27;19982;-73
2023/03/21 11:09:18;;;;;;;;;;;;;;;16.57;50.48;99141.50;5081809;28;20364;-72
2023/03/21 11:12:00;;;;;;;;;;;;;;;16.26;51.21;99144.34;5085020;28;19940;-73
2023/03/21 11:14:45;;;;;;;;;;;;;;;16.06;52.44;99131.53;5084453;28;19923;-73
2023/03/21 11:17:17;;;;;;;;;;;;;;;16.30;52.20;99127.47;5085122;28;20405;-73
2023/03/21 11:19:47;;;;;;;;;;;;;;;16.30;52.69;99118.16;5086198;28;19912;-74
2023/03/21 11:22:13;;;;;;;;;;;;;;;16.26;52.38;99116.13;5091008;28;19919;-72
2023/03/21 11:24:38;;;;;;;;;;;;;;;16.53;52.98;99112.41;5083049;28;19920;-73
2023/03/21 11:27:06;;;;;;;;;;;;;;;16.39;52.67;99110.22;5084958;28;19920;-72
2023/03/21 11:29:37;;;;;;;;;;;;;;;16.73;52.73;99093.31;5083444;28;19917;-73
2023/03/21 11:32:15;;;;;;;;;;;;;;;16.56;52.93;99098.34;5085766;28;19924;-73
2023/03/21 11:34:49;;;;;;;;;;;;;;;16.69;52.47;99090.44;5089183;28;19919;-72
2023/03/21 11:37:20;;;;;;;;;;;;;;;16.80;52.08;99086.91;5085227;28;20322;-73
2023/03/21 11:39:46;;;;;;;;;;;;;;;16.60;52.93;99083.47;5089201;28;19918;-73
2023/03/21 11:42:29;;;;;;;;;;;;;;;16.60;52.68;99069.34;5093334;28;20326;-73
2023/03/21 11:44:58;;;;;;;;;;;;;;;16.63;52.70;99075.03;5087505;28;20258;-72
2023/03/21 11:47:24;;;;;;;;;;;;;;;16.77;52.01;99082.84;5090625;28;19916;-73
2023/03/21 11:49:49;;;;;;;;;;;;;;;17.11;50.52;99071.53;5085009;28;19963;-73
2023/03/21 11:52:35;;;;;;;;;;;;;;;16.89;50.27;99069.66;5090757;28;19944;-72
2023/03/21 11:55:16;;;;;;;;;;;;;;;17.10;49.68;99066.25;5086738;28;19924;-73
2023/03/21 11:57:55;;;;;;;;;;;;;;;17.48;48.85;99057.69;5086075;28;19916;-73
2023/03/21 12:00:25;;;;;;;;;;;;;;;16.87;49.71;99055.91;5100897;28;19965;-73
2023/03/21 12:02:56;;;;;;;;;;;;;;;17.31;49.85;99062.78;5079025;28;20388;-73
2023/03/21 12:05:30;;;;;;;;;;;;;;;17.45;48.95;99059.28;5087911;28;19916;-73
2023/03/21 12:08:15;;;;;;;;;;;;;;;17.60;49.07;99059.38;5075530;28;19916;-73
2023/03/21 12:10:46;;;;;;;;;;;;;;;17.35;49.63;99043.88;5082460;28;19912;-73
2023/03/21 12:13:23;;;;;;;;;;;;;;;17.35;48.82;99046.69;5074675;28;20272;-73
2023/03/21 12:15:54;;;;;;;;;;;;;;;17.09;49.91;99044.84;5072158;28;20126;-73
2023/03/21 12:18:22;;;;;;;;;;;;;;;17.52;49.13;99042.38;5079217;28;19912;-73
2023/03/21 12:20:50;;;;;;;;;;;;;;;17.03;49.98;99035.13;5075984;28;19962;-73
2023/03/21 12:23:21;;;;;;;;;;;;;;;16.84;50.57;99036.94;5092108;28;19919;-73
2023/03/21 12:26:02;;;;;;;;;;;;;;;16.89;50.56;99041.41;5091496;28;20030;-73
2023/03/21 12:28:27;;;;;;;;;;;;;;;17.42;49.56;99037.47;5088657;28;19926;-73
2023/03/21 12:31:04;;;;;;;;;;;;;;;17.26;49.59;99032.91;5082645;28;20006;-73
2023/03/21 12:33:30;;;;;;;;;;;;;;;17.39;48.99;99036.22;5078313;28;19982;-73
2023/03/21 12:36:11;;;;;;;;;;;;;;;17.72;49.81;99030.78;5073062;28;19912;-73
2023/03/21 12:38:43;;;;;;;;;;;;;;;17.33;49.56;99036.97;5082292;28;19931;-73
2023/03/21 12:41:08;;;;;;;;;;;;;;;17.45;49.51;99019.69;5079697;28;20307;-73
2023/03/21 12:43:40;;;;;;;;;;;;;;;17.64;48.91;99023.47;5083897;28;19935;-74
2023/03/21 12:46:41;;;;;;;;;;;;;;;17.95;47.15;99019.22;5081842;28;20286;-75
2023/03/21 12:49:09;;;;;;;;;;;;;;;17.92;47.16;99014.34;5048549;28;20039;-74
2023/03/21 12:51:40;;;;;;;;;;;;;;;17.76;46.97;99013.84;5074762;28;19922;-74
2023/03/21 12:54:25;;;;;;;;;;;;;;;17.81;47.85;99011.44;5086305;28;19923;-74
2023/03/21 12:56:58;;;;;;;;;;;;;;;17.62;48.83;99003.28;5104972;28;19916;-74
2023/03/21 12:59:32;;;;;;;;;;;;;;;17.62;47.85;99001.25;5081337;28;20032;-73